Time;durP1;ratioP1;P1;durP2;ratioP2;P2;SDS_P1;SDS_P2;PMS_P1;PMS_P2;Temp;Humidity;BMP_temperature;BMP_pressure;BME280_temperature;BME280_humidity;BME280_pressure;Samples;Min_cycle;Max_cycle;Signal;HPM_P1;HPM_P2
2021/09/19 00:02:39;;;;;;;6.50;5.30;;;;;;;7.53;81.64;99246.92;472349;1190;145430;-60
2021/09/19 00:12:45;;;;;;;7.70;5.70;;;;;;;7.50;81.65;99245.32;460899;1190;143911;-58
2021/09/19 00:22:51;;;;;;;7.50;4.80;;;;;;;7.44;81.41;99246.00;471154;1190;141844;-60
2021/09/19 00:32:58;;;;;;;5.40;4.20;;;;;;;7.42;81.34;99247.34;477872;1190;141560;-60
2021/09/19 00:43:04;;;;;;;6.90;4.60;;;;;;;7.45;81.17;99252.44;477801;1190;141432;-59
2021/09/19 00:53:10;;;;;;;6.60;4.70;;;;;;;7.47;81.13;99245.85;477035;1189;141253;-60
2021/09/19 01:03:17;;;;;;;6.30;5.00;;;;;;;7.48;81.36;99244.04;462443;1190;141506;-59
2021/09/19 01:13:24;;;;;;;6.40;4.40;;;;;;;7.46;81.40;99245.40;477918;1189;143331;-59
2021/09/19 01:23:33;;;;;;;4.50;4.10;;;;;;;7.46;81.40;99250.45;476944;1190;142087;-60
2021/09/19 01:33:39;;;;;;;7.30;6.00;;;;;;;7.47;81.49;99252.98;465167;1190;140615;-58
2021/09/19 01:43:45;;;;;;;5.50;4.30;;;;;;;7.45;81.23;99258.88;467347;1190;141077;-61
2021/09/19 01:53:51;;;;;;;6.00;5.40;;;;;;;7.41;81.42;99266.22;473287;1189;140161;-59
2021/09/19 02:03:57;;;;;;;5.40;4.70;;;;;;;7.39;81.17;99263.03;465284;1190;141485;-58
2021/09/19 02:14:03;;;;;;;7.20;4.90;;;;;;;7.36;81.28;99265.98;470664;1190;142185;-60
2021/09/19 02:24:10;;;;;;;6.40;5.50;;;;;;;7.34;81.15;99267.48;468088;1190;140927;-61
2021/09/19 02:34:16;;;;;;;5.80;5.20;;;;;;;7.24;81.25;99257.59;470147;1189;141487;-59
2021/09/19 02:44:22;;;;;;;9.10;6.70;;;;;;;7.11;81.29;99259.16;477082;1189;140857;-59
2021/09/19 02:54:28;;;;;;;6.90;5.50;;;;;;;7.07;81.48;99260.43;472417;1189;141609;-59
2021/09/19 03:04:35;;;;;;;7.60;5.80;;;;;;;7.11;81.72;99258.80;465461;1190;144424;-60
2021/09/19 03:14:41;;;;;;;7.50;5.80;;;;;;;7.08;81.66;99250.44;472622;1189;140551;-60
2021/09/19 03:24:47;;;;;;;6.30;5.60;;;;;;;7.06;81.68;99253.17;477910;1189;140714;-60
2021/09/19 03:34:53;;;;;;;8.80;5.40;;;;;;;7.08;81.97;99252.71;477879;1189;142283;-61
2021/09/19 03:45:00;;;;;;;5.60;5.00;;;;;;;7.05;82.08;99252.02;473193;1189;141036;-59
2021/09/19 03:55:07;;;;;;;6.70;5.60;;;;;;;7.06;82.18;99260.66;477482;1189;141265;-59
2021/09/19 04:05:14;;;;;;;7.80;5.60;;;;;;;7.08;82.03;99261.74;477136;1190;140671;-59
2021/09/19 04:15:19;;;;;;;6.70;6.00;;;;;;;7.09;82.18;99263.23;477937;1190;141221;-60
2021/09/19 04:25:26;;;;;;;7.10;5.90;;;;;;;7.11;82.19;99257.40;477947;1190;140999;-59
2021/09/19 04:35:32;;;;;;;7.60;5.70;;;;;;;7.15;82.10;99256.52;464424;1190;140863;-58
2021/09/19 04:45:39;;;;;;;9.90;5.60;;;;;;;7.20;82.16;99266.16;468539;1191;141638;-59
2021/09/19 04:55:45;;;;;;;6.40;5.00;;;;;;;7.24;82.04;99261.73;477231;1190;141136;-62
2021/09/19 05:05:52;;;;;;;7.20;4.70;;;;;;;7.34;81.99;99266.92;476573;1190;141954;-59
2021/09/19 05:15:58;;;;;;;10.10;6.00;;;;;;;7.43;81.98;99265.92;461071;1191;140332;-58
2021/09/19 05:26:04;;;;;;;6.20;4.50;;;;;;;7.51;81.68;99280.13;475670;1189;142230;-58
2021/09/19 05:36:10;;;;;;;7.20;5.20;;;;;;;7.59;81.66;99282.31;477898;1189;143500;-59
2021/09/19 05:46:17;;;;;;;6.00;5.00;;;;;;;7.69;81.41;99283.48;477881;1188;141645;-59
2021/09/19 05:56:25;;;;;;;7.70;4.80;;;;;;;7.85;81.26;99285.88;476971;1190;141896;-60
2021/09/19 06:06:31;;;;;;;7.70;5.20;;;;;;;8.02;81.09;99283.33;470355;1190;141612;-59
2021/09/19 06:16:38;;;;;;;6.70;6.00;;;;;;;8.22;80.86;99285.98;477392;1190;141044;-59
2021/09/19 06:26:43;;;;;;;6.90;5.80;;;;;;;8.41;80.26;99292.73;471676;1190;142922;-59
2021/09/19 06:36:50;;;;;;;4.60;4.10;;;;;;;8.84;79.89;99287.20;460867;1190;145311;-58
2021/09/19 06:46:57;;;;;;;6.30;3.80;;;;;;;9.50;78.83;99291.11;475303;1189;140980;-58
2021/09/19 06:57:03;;;;;;;12.40;4.50;;;;;;;9.83;77.48;99294.60;477698;1190;142351;-59
2021/09/19 07:07:10;;;;;;;5.20;3.90;;;;;;;10.02;76.86;99292.65;477770;1189;142666;-59
2021/09/19 07:17:16;;;;;;;6.00;4.50;;;;;;;9.93;76.18;99300.06;477176;1189;141786;-60
2021/09/19 07:27:22;;;;;;;6.50;3.90;;;;;;;9.90;76.02;99299.95;477912;1189;141338;-59
2021/09/19 07:37:29;;;;;;;4.90;3.90;;;;;;;9.93;75.44;99305.66;477833;1190;142855;-59
2021/09/19 07:47:36;;;;;;;6.10;4.20;;;;;;;10.17;75.15;99305.33;468715;1190;141460;-59
2021/09/19 07:57:43;;;;;;;5.10;3.50;;;;;;;10.18;74.28;99302.96;476941;1190;141914;-61
2021/09/19 08:07:49;;;;;;;6.80;3.40;;;;;;;10.20;73.86;99304.60;477343;1191;142896;-60
2021/09/19 08:17:55;;;;;;;4.30;3.20;;;;;;;10.37;73.27;99315.38;477657;1190;142310;-59
2021/09/19 08:28:01;;;;;;;4.90;3.60;;;;;;;10.38;72.64;99318.42;465339;1190;141012;-58
2021/09/19 08:38:08;;;;;;;10.60;4.60;;;;;;;10.40;72.81;99312.05;461490;1190;143982;-58
2021/09/19 08:48:15;;;;;;;4.20;3.00;;;;;;;10.37;72.33;99317.63;460783;1192;140802;-59
2021/09/19 08:58:21;;;;;;;5.40;3.10;;;;;;;10.45;72.08;99323.81;461594;1177;142134;-58
2021/09/19 09:08:30;;;;;;;6.90;4.70;;;;;;;10.50;72.05;99328.38;460589;1187;141814;-59
2021/09/19 09:18:39;;;;;;;4.70;4.30;;;;;;;10.68;71.85;99329.08;461518;1191;142849;-57
2021/09/19 09:28:47;;;;;;;7.80;3.30;;;;;;;10.77;71.55;99323.20;462325;1192;141243;-59
2021/09/19 09:38:52;;;;;;;;;;;;;;;10.82;71.70;99322.89;462803;1189;141996;-58
2021/09/19 09:48:58;;;;;;;9.40;4.20;;;;;;;11.10;71.44;99328.44;445863;1190;10001477;-58
2021/09/19 09:59:06;;;;;;;7.10;3.50;;;;;;;11.30;70.57;99333.38;462103;1189;141390;-59
2021/09/19 10:09:12;;;;;;;4.30;3.20;;;;;;;11.33;70.12;99328.92;464166;1190;143685;-59
2021/09/19 10:19:21;;;;;;;4.60;3.00;;;;;;;11.49;70.44;99330.45;477249;1191;140919;-59
2021/09/19 10:29:29;;;;;;;4.50;3.60;;;;;;;11.66;69.74;99324.15;476455;1190;141584;-59
2021/09/19 10:39:41;;;;;;;6.80;3.30;;;;;;;11.91;69.53;99332.14;468655;1190;142250;-59
2021/09/19 10:49:47;;;;;;;5.40;3.40;;;;;;;12.31;68.26;99329.24;469751;1191;142377;-58
2021/09/19 11:00:19;;;;;;;4.00;3.20;;;;;;;12.32;67.67;99342.55;465549;1191;141515;-58
2021/09/19 11:10:25;;;;;;;6.20;4.60;;;;;;;12.35;67.27;99342.48;474573;1191;142021;-58
2021/09/19 11:20:32;;;;;;;5.10;4.20;;;;;;;12.39;67.32;99346.56;462993;1189;141608;-63
2021/09/19 11:30:39;;;;;;;3.90;3.10;;;;;;;12.52;67.11;99346.99;463826;1190;145204;-60
2021/09/19 11:40:46;;;;;;;4.70;3.50;;;;;;;12.56;66.83;99344.95;464590;1190;141540;-60
2021/09/19 11:50:52;;;;;;;4.70;3.60;;;;;;;12.66;66.91;99348.44;467370;1190;140866;-59
2021/09/19 12:01:01;;;;;;;4.70;4.00;;;;;;;12.58;66.91;99351.63;462753;1190;141851;-59
2021/09/19 12:11:08;;;;;;;4.80;4.10;;;;;;;12.39;67.01;99341.27;460943;1190;141640;-58
2021/09/19 12:21:18;;;;;;;5.10;4.20;;;;;;;12.43;67.48;99344.83;466215;1190;141075;-58
2021/09/19 12:31:40;;;;;;;9.70;4.90;;;;;;;12.40;67.29;99343.86;472216;1190;141230;-60
2021/09/19 12:41:48;;;;;;;4.70;3.90;;;;;;;12.33;67.56;99344.03;476642;1190;142139;-60
2021/09/19 12:52:06;;;;;;;4.60;3.90;;;;;;;12.22;67.79;99347.78;466884;1191;145095;-58
2021/09/19 13:02:12;;;;;;;5.00;4.50;;;;;;;12.17;68.39;99346.98;471253;1191;142696;-59
2021/09/19 13:12:18;;;;;;;4.00;3.50;;;;;;;12.34;68.25;99339.76;477164;1190;141667;-59
2021/09/19 13:22:24;;;;;;;5.20;3.40;;;;;;;12.14;68.12;99339.98;470539;1190;141044;-63
2021/09/19 13:32:30;;;;;;;5.70;3.10;;;;;;;11.88;67.91;99338.14;468828;1190;141710;-67
2021/09/19 13:42:36;;;;;;;3.40;3.10;;;;;;;11.96;68.29;99342.89;464185;1190;142170;-64
2021/09/19 13:52:44;;;;;;;2.80;2.50;;;;;;;11.70;67.90;99343.64;456220;1177;10001166;-61
2021/09/19 14:02:49;;;;;;;4.00;2.90;;;;;;;11.47;68.34;99340.39;460776;1190;142836;-60
2021/09/19 14:12:56;;;;;;;3.50;3.20;;;;;;;11.33;68.77;99349.11;464914;1186;145147;-59
2021/09/19 14:23:01;;;;;;;3.90;2.50;;;;;;;11.32;68.88;99348.85;467922;1177;141037;-59
2021/09/19 14:33:07;;;;;;;4.30;3.00;;;;;;;11.40;69.06;99352.27;469132;1190;141909;-61
2021/09/19 14:43:13;;;;;;;3.50;2.80;;;;;;;11.35;69.19;99352.80;472713;1190;141946;-61
2021/09/19 14:53:21;;;;;;;4.70;3.10;;;;;;;11.24;69.43;99356.95;476743;1190;141463;-62
2021/09/19 15:03:26;;;;;;;4.00;3.60;;;;;;;11.20;69.75;99354.92;464700;1190;140905;-61
2021/09/19 15:13:33;;;;;;;5.80;3.20;;;;;;;11.22;69.98;99356.15;469632;1190;140996;-60
2021/09/19 15:23:39;;;;;;;4.70;3.00;;;;;;;11.17;69.90;99350.39;460375;1190;145236;-61
2021/09/19 15:33:45;;;;;;;3.90;3.10;;;;;;;11.10;70.17;99344.63;460706;1177;198290;-61
2021/09/19 15:43:51;;;;;;;4.10;3.70;;;;;;;11.00;70.35;99346.17;460874;1191;141560;-60
2021/09/19 15:53:57;;;;;;;7.10;3.80;;;;;;;10.91;70.81;99345.85;461754;1192;140831;-61
2021/09/19 16:04:03;;;;;;;6.60;3.90;;;;;;;10.82;71.09;99353.01;464971;1192;142354;-61
2021/09/19 16:14:10;;;;;;;4.80;3.60;;;;;;;10.72;71.35;99362.23;466299;1192;141126;-60
2021/09/19 16:24:15;;;;;;;6.70;3.90;;;;;;;10.60;71.78;99356.02;460387;1192;140625;-61
2021/09/19 16:34:21;;;;;;;3.80;3.40;;;;;;;10.49;72.17;99363.02;468905;1192;142500;-60
2021/09/19 16:44:27;;;;;;;4.50;3.60;;;;;;;10.43;72.56;99367.69;476790;1189;141316;-61
2021/09/19 16:54:33;;;;;;;5.60;3.30;;;;;;;10.37;72.76;99365.56;463862;1190;140473;-60
2021/09/19 17:04:39;;;;;;;5.90;3.80;;;;;;;10.32;73.14;99367.54;464931;1184;141927;-61
2021/09/19 17:14:46;;;;;;;6.30;5.10;;;;;;;10.27;73.48;99372.58;459830;1190;141934;-60
2021/09/19 17:24:52;;;;;;;7.10;5.70;;;;;;;10.23;73.76;99380.14;460727;1189;141550;-59
2021/09/19 17:34:58;;;;;;;6.60;5.60;;;;;;;10.19;73.98;99390.02;468704;1190;143876;-59
2021/09/19 17:45:06;;;;;;;6.80;3.90;;;;;;;10.18;74.20;99388.55;460994;1189;140906;-61
2021/09/19 17:55:12;;;;;;;8.70;5.10;;;;;;;10.16;74.48;99396.91;477801;1189;141872;-62
2021/09/19 18:05:20;;;;;;;5.20;4.60;;;;;;;10.17;74.50;99412.76;476977;1190;143519;-62
2021/09/19 18:15:26;;;;;;;5.80;3.80;;;;;;;10.19;74.66;99414.89;466998;1190;142351;-59
2021/09/19 18:25:32;;;;;;;4.00;3.60;;;;;;;10.19;74.73;99418.88;460958;1190;140684;-62
2021/09/19 18:35:39;;;;;;;5.10;4.20;;;;;;;10.14;75.11;99418.37;476491;1190;141621;-61
2021/09/19 18:45:46;;;;;;;4.80;4.30;;;;;;;10.08;75.13;99420.95;477703;1189;142839;-61
2021/09/19 18:55:52;;;;;;;8.00;4.70;;;;;;;10.07;75.23;99433.48;472195;1190;143967;-60
2021/09/19 19:05:59;;;;;;;5.30;4.80;;;;;;;10.03;75.41;99429.35;469919;1190;141393;-62
2021/09/19 19:16:05;;;;;;;5.10;4.10;;;;;;;9.99;75.59;99434.02;464493;1190;140393;-61
2021/09/19 19:26:12;;;;;;;5.00;4.50;;;;;;;9.90;75.78;99435.58;468991;1189;141442;-61
2021/09/19 19:36:18;;;;;;;4.80;4.30;;;;;;;9.87;75.92;99434.59;477729;1189;141237;-61
2021/09/19 19:46:24;;;;;;;6.00;4.30;;;;;;;9.85;76.13;99446.08;472714;1190;142351;-60
2021/09/19 19:56:30;;;;;;;5.00;4.50;;;;;;;9.82;76.25;99445.91;476853;1190;141496;-62
2021/09/19 20:06:36;;;;;;;6.10;5.20;;;;;;;9.80;76.40;99445.47;461495;1191;141756;-60
2021/09/19 20:16:44;;;;;;;4.10;3.70;;;;;;;9.80;76.68;99452.67;475415;1190;184355;-61
2021/09/19 20:26:49;;;;;;;5.70;4.20;;;;;;;9.79;76.76;99458.66;476034;1190;141328;-60
2021/09/19 20:36:55;;;;;;;5.00;4.20;;;;;;;9.74;76.83;99461.26;468923;1190;141289;-58
2021/09/19 20:47:01;;;;;;;4.80;4.30;;;;;;;9.74;77.14;99464.04;463457;1190;141232;-59
2021/09/19 20:57:07;;;;;;;5.90;4.50;;;;;;;9.71;77.17;99464.73;461276;1192;140833;-59
2021/09/19 21:07:13;;;;;;;6.40;5.00;;;;;;;9.60;77.22;99466.30;461563;1190;141103;-60
2021/09/19 21:17:19;;;;;;;4.50;4.10;;;;;;;9.51;77.56;99473.34;461632;1190;140483;-60
2021/09/19 21:27:24;;;;;;;5.30;4.30;;;;;;;9.46;77.64;99474.50;462765;1190;141971;-60
2021/09/19 21:37:30;;;;;;;10.00;6.20;;;;;;;9.43;78.02;99478.17;461544;1190;141379;-59
2021/09/19 21:47:37;;;;;;;5.50;4.40;;;;;;;9.40;78.33;99482.40;461850;1190;142471;-59
2021/09/19 21:57:44;;;;;;;4.60;4.10;;;;;;;9.37;78.57;99485.02;465062;1190;142649;-60
2021/09/19 22:07:50;;;;;;;6.30;5.40;;;;;;;9.36;78.92;99484.37;468751;1190;141923;-59
2021/09/19 22:17:56;;;;;;;5.10;4.70;;;;;;;9.36;78.83;99487.33;477647;1190;140837;-60
2021/09/19 22:28:01;;;;;;;6.30;5.00;;;;;;;9.39;78.91;99491.50;477683;1189;141318;-60
2021/09/19 22:38:07;;;;;;;5.60;5.10;;;;;;;9.40;78.81;99486.77;476792;1190;141527;-60
2021/09/19 22:48:13;;;;;;;8.60;7.50;;;;;;;9.36;78.70;99489.10;477564;1190;142091;-60
2021/09/19 22:58:19;;;;;;;9.40;8.50;;;;;;;9.25;77.86;99496.73;477819;1190;144520;-61
2021/09/19 23:08:25;;;;;;;8.10;7.20;;;;;;;9.13;77.47;99502.31;476873;1190;141683;-60
2021/09/19 23:18:30;;;;;;;9.30;8.00;;;;;;;9.05;77.48;99505.60;476684;1190;182085;-61
2021/09/19 23:28:36;;;;;;;9.40;8.60;;;;;;;8.99;77.50;99508.77;469301;1190;140931;-59
2021/09/19 23:38:42;;;;;;;9.40;7.70;;;;;;;8.90;77.62;99516.05;476979;1190;141312;-61
2021/09/19 23:48:48;;;;;;;8.30;7.30;;;;;;;8.80;77.80;99518.21;477930;1189;141212;-61
2021/09/19 23:58:53;;;;;;;7.90;7.10;;;;;;;8.72;78.09;99519.33;477664;1190;140942;-61
